Time;durP1;ratioP1;P1;durP2;ratioP2;P2;SDS_P1;SDS_P2;PMS_P1;PMS_P2;Temp;Humidity;BMP_temperature;BMP_pressure;BME280_temperature;BME280_humidity;BME280_pressure;Samples;Min_cycle;Max_cycle;Signal;HPM_P1;HPM_P2
2022/03/12 00:00:49;;;;;;;;;;;;;;;-0.18;59.17;101399.53;4425687;32;19989;-89
2022/03/12 00:03:14;;;;;;;;;;;;;;;-0.16;59.16;101402.13;4425257;32;20037;-89
2022/03/12 00:05:50;;;;;;;;;;;;;;;-0.34;59.16;101395.50;4408816;32;20027;-88
2022/03/12 00:08:16;;;;;;;;;;;;;;;-0.43;59.15;101401.97;4425367;32;19981;-88
2022/03/12 00:10:43;;;;;;;;;;;;;;;-0.53;59.14;101395.59;4424373;32;20001;-88
2022/03/12 00:13:08;;;;;;;;;;;;;;;-0.56;59.15;101400.59;4425521;32;20051;-90
2022/03/12 00:15:35;;;;;;;;;;;;;;;-0.72;59.13;101398.22;4425029;32;20001;-89
2022/03/12 00:18:00;;;;;;;;;;;;;;;-0.87;59.13;101398.50;4438164;32;19988;-88
2022/03/12 00:20:27;;;;;;;;;;;;;;;-0.85;59.13;101391.78;4425373;32;20334;-89
2022/03/12 00:22:52;;;;;;;;;;;;;;;-1.06;59.11;101396.88;4425495;32;20373;-89
2022/03/12 00:25:26;;;;;;;;;;;;;;;-1.06;59.11;101396.88;4425555;32;19988;-88
2022/03/12 00:27:51;;;;;;;;;;;;;;;-1.20;59.10;101395.44;4425277;32;19987;-89
2022/03/12 00:30:17;;;;;;;;;;;;;;;-1.21;59.11;101391.12;4425144;32;19982;-87
2022/03/12 00:32:43;;;;;;;;;;;;;;;-1.20;59.11;101402.22;4438074;32;19997;-87
2022/03/12 00:35:11;;;;;;;;;;;;;;;-1.13;59.11;101394.91;4438119;32;19988;-86
2022/03/12 00:37:37;;;;;;;;;;;;;;;-1.08;59.12;101395.94;4438253;32;19988;-87
2022/03/12 00:40:03;;;;;;;;;;;;;;;-1.24;59.10;101394.44;4438238;32;19994;-87
2022/03/12 00:42:29;;;;;;;;;;;;;;;-1.23;59.11;101390.19;4438138;32;20001;-87
2022/03/12 00:44:54;;;;;;;;;;;;;;;-1.24;59.10;101393.56;4437729;32;19992;-86
2022/03/12 00:47:19;;;;;;;;;;;;;;;-1.20;59.11;101387.75;4424768;32;19997;-87
2022/03/12 00:49:45;;;;;;;;;;;;;;;-1.17;59.10;101400.69;4425261;32;19997;-90
2022/03/12 00:52:10;;;;;;;;;;;;;;;-1.05;59.11;101401.19;4425579;32;20031;-89
2022/03/12 00:54:36;;;;;;;;;;;;;;;-1.16;59.11;101405.00;4425568;32;20021;-88
2022/03/12 00:57:01;;;;;;;;;;;;;;;-1.08;59.12;101389.97;4424803;32;29760;-89
2022/03/12 00:59:26;;;;;;;;;;;;;;;-1.10;59.11;101383.94;4425414;32;20325;-88
2022/03/12 01:01:51;;;;;;;;;;;;;;;-1.32;59.10;101392.38;4425241;32;20062;-87
2022/03/12 01:04:17;;;;;;;;;;;;;;;-1.16;59.11;101394.78;4425193;32;20050;-85
2022/03/12 01:06:42;;;;;;;;;;;;;;;-1.21;59.10;101392.81;4437662;32;19974;-86
2022/03/12 01:09:09;;;;;;;;;;;;;;;-1.11;59.11;101388.16;4439268;32;20011;-87
2022/03/12 01:11:34;;;;;;;;;;;;;;;-1.08;59.12;101389.97;4438035;32;19993;-87
2022/03/12 01:13:59;;;;;;;;;;;;;;;-1.18;59.10;101401.50;4437813;32;20356;-87
2022/03/12 01:16:25;;;;;;;;;;;;;;;-1.06;59.11;101389.22;4423754;32;30477;-86
2022/03/12 01:18:50;;;;;;;;;;;;;;;-0.87;59.13;101380.62;4437854;32;20008;-87
2022/03/12 01:21:17;;;;;;;;;;;;;;;-1.08;59.12;101380.62;4439204;32;19973;-87
2022/03/12 01:23:44;;;;;;;;;;;;;;;-0.99;59.12;101382.66;4425040;32;20045;-86
2022/03/12 01:26:10;;;;;;;;;;;;;;;-1.02;59.12;101385.97;4437741;32;19982;-86
2022/03/12 01:28:35;;;;;;;;;;;;;;;-0.99;59.12;101382.66;4437820;32;19993;-87
2022/03/12 01:31:00;;;;;;;;;;;;;;;-0.86;59.13;101386.59;4425002;32;20005;-88
2022/03/12 01:33:26;;;;;;;;;;;;;;;-0.84;59.12;101383.28;4424796;32;19981;-88
2022/03/12 01:35:51;;;;;;;;;;;;;;;-0.76;59.13;101391.25;4424600;32;20315;-87
2022/03/12 01:38:16;;;;;;;;;;;;;;;-0.71;59.14;101392.31;4424201;32;28767;-88
2022/03/12 01:40:41;;;;;;;;;;;;;;;-0.73;59.13;101397.38;4437891;32;20254;-89
2022/03/12 01:43:07;;;;;;;;;;;;;;;-0.63;59.14;101402.06;4425144;32;20039;-86
2022/03/12 01:45:34;;;;;;;;;;;;;;;-0.58;59.15;101402.22;4424837;32;19985;-86
2022/03/12 01:48:00;;;;;;;;;;;;;;;-0.52;59.14;101399.03;4437697;32;20361;-86
2022/03/12 01:50:26;;;;;;;;;;;;;;;-0.65;59.14;101401.12;4424837;32;19994;-87
2022/03/12 01:52:53;;;;;;;;;;;;;;;-0.62;59.14;101405.47;4437642;32;20029;-87
2022/03/12 01:55:18;;;;;;;;;;;;;;;-0.76;59.13;101404.03;4424856;32;20321;-86
2022/03/12 01:57:43;;;;;;;;;;;;;;;-0.68;59.14;101405.25;4435761;32;31511;-86
2022/03/12 02:00:20;;;;;;;;;;;;;;;-0.66;59.13;101411.28;4437545;32;20005;-87
2022/03/12 02:02:47;;;;;;;;;;;;;;;-0.85;59.12;101403.69;4437510;32;19985;-86
2022/03/12 02:05:13;;;;;;;;;;;;;;;-0.70;59.14;101400.06;4424500;32;19977;-87
2022/03/12 02:07:38;;;;;;;;;;;;;;;-0.67;59.13;101400.19;4424399;32;19989;-87
2022/03/12 02:10:04;;;;;;;;;;;;;;;-0.68;59.14;101402.69;4437452;32;20049;-86
2022/03/12 02:12:29;;;;;;;;;;;;;;;-0.69;59.13;101403.50;4437456;32;19977;-86
2022/03/12 02:14:55;;;;;;;;;;;;;;;-0.69;59.14;101395.81;4437236;32;20343;-86
2022/03/12 02:17:20;;;;;;;;;;;;;;;-0.70;59.14;101397.50;4437286;32;20274;-86
2022/03/12 02:19:45;;;;;;;;;;;;;;;-0.67;59.13;101399.31;4424446;32;20037;-86
2022/03/12 02:22:13;;;;;;;;;;;;;;;-0.69;59.14;101398.38;4436904;32;22083;-87
2022/03/12 02:24:38;;;;;;;;;;;;;;;-0.75;59.13;101396.44;4424556;32;20614;-86
2022/03/12 02:27:04;;;;;;;;;;;;;;;-0.75;59.13;101395.56;4424337;32;20318;-86
2022/03/12 02:29:29;;;;;;;;;;;;;;;-0.89;59.12;101394.16;4437440;32;19981;-86
2022/03/12 02:31:56;;;;;;;;;;;;;;;-0.91;59.13;101396.66;4437444;32;19982;-86
2022/03/12 02:34:23;;;;;;;;;;;;;;;-0.74;59.13;101408.41;4424513;32;20076;-86
2022/03/12 02:36:52;;;;;;;;;;;;;;;-0.82;59.13;101397.00;4438665;32;19995;-86
2022/03/12 02:39:17;;;;;;;;;;;;;;;-0.81;59.13;101410.66;4437376;32;20091;-86
2022/03/12 02:41:42;;;;;;;;;;;;;;;-0.67;59.13;101407.00;4437422;32;20266;-87
2022/03/12 02:44:10;;;;;;;;;;;;;;;-0.68;59.14;101402.69;4424495;32;20013;-86
2022/03/12 02:46:38;;;;;;;;;;;;;;;-0.60;59.14;101403.84;4437377;32;19993;-86
2022/03/12 02:49:03;;;;;;;;;;;;;;;-0.59;59.14;101400.47;4424391;32;20006;-87
2022/03/12 02:51:29;;;;;;;;;;;;;;;-0.71;59.14;101413.66;4437008;32;19993;-87
2022/03/12 02:53:56;;;;;;;;;;;;;;;-0.77;59.13;101408.28;4437258;32;19965;-87
2022/03/12 02:56:21;;;;;;;;;;;;;;;-0.73;59.13;101409.28;4437349;32;20046;-87
2022/03/12 02:58:46;;;;;;;;;;;;;;;-0.88;59.12;101419.78;4423824;32;26148;-87
2022/03/12 03:01:14;;;;;;;;;;;;;;;-0.83;59.13;101417.41;4436651;32;28117;-88
2022/03/12 03:03:41;;;;;;;;;;;;;;;-0.76;59.13;101404.91;4424342;32;19981;-87
2022/03/12 03:06:07;;;;;;;;;;;;;;;-0.87;59.13;101401.06;4424357;32;19997;-88
2022/03/12 03:08:34;;;;;;;;;;;;;;;-0.82;59.13;101408.91;4423803;32;20358;-88
2022/03/12 03:11:01;;;;;;;;;;;;;;;-0.81;59.13;101419.22;4424210;32;19989;-87
2022/03/12 03:13:35;;;;;;;;;;;;;;;-0.78;59.13;101409.09;4424173;32;20360;-88
2022/03/12 03:16:15;;;;;;;;;;;;;;;-0.63;59.14;101412.28;4424041;32;20005;-87
2022/03/12 03:18:42;;;;;;;;;;;;;;;-0.56;59.15;101415.94;4424027;32;19989;-87
2022/03/12 03:21:09;;;;;;;;;;;;;;;-0.64;59.14;101415.66;4423987;32;19986;-84
2022/03/12 03:23:34;;;;;;;;;;;;;;;-0.45;59.15;101409.56;4436995;32;20028;-84
2022/03/12 03:26:00;;;;;;;;;;;;;;;-0.50;59.15;101416.19;4423880;32;20009;-84
2022/03/12 03:28:25;;;;;;;;;;;;;;;-0.70;59.14;101412.84;4424041;32;20043;-85
2022/03/12 03:30:50;;;;;;;;;;;;;;;-0.64;59.14;101412.22;4423889;32;19997;-85
2022/03/12 03:33:19;;;;;;;;;;;;;;;-0.57;59.15;101415.88;4436184;32;29647;-85
2022/03/12 03:35:45;;;;;;;;;;;;;;;-0.53;59.14;101410.94;4436843;32;19989;-85
2022/03/12 03:38:11;;;;;;;;;;;;;;;-0.45;59.14;101417.25;4423618;32;19982;-85
2022/03/12 03:40:36;;;;;;;;;;;;;;;-0.45;59.15;101412.13;4423705;32;19977;-85
2022/03/12 03:43:01;;;;;;;;;;;;;;;-0.43;59.16;101420.75;4437404;32;24031;-85
2022/03/12 03:45:27;;;;;;;;;;;;;;;-0.35;59.16;101413.34;4423718;32;20630;-87
2022/03/12 03:47:53;;;;;;;;;;;;;;;-0.34;59.16;101421.09;4423780;32;20043;-87
2022/03/12 03:50:20;;;;;;;;;;;;;;;-0.55;59.14;101427.91;4437778;32;20338;-87
2022/03/12 03:52:45;;;;;;;;;;;;;;;-0.51;59.14;101426.34;4423668;32;19985;-87
2022/03/12 03:55:10;;;;;;;;;;;;;;;-0.53;59.14;101433.09;4435875;32;26416;-87
2022/03/12 03:57:36;;;;;;;;;;;;;;;-0.60;59.13;101426.87;4423427;32;20121;-86
2022/03/12 04:00:01;;;;;;;;;;;;;;;-0.53;59.14;101422.84;4436735;32;19977;-89
2022/03/12 04:02:26;;;;;;;;;;;;;;;-0.53;59.15;101426.28;4424093;32;20003;-88
2022/03/12 04:04:53;;;;;;;;;;;;;;;-0.60;59.14;101428.56;4422864;32;36087;-89
2022/03/12 04:07:18;;;;;;;;;;;;;;;-0.56;59.15;101422.75;4423713;32;19998;-89
2022/03/12 04:09:43;;;;;;;;;;;;;;;-0.51;59.14;101422.09;4423380;32;19981;-89
2022/03/12 04:12:09;;;;;;;;;;;;;;;-0.54;59.14;101422.00;4422782;32;35567;-88
2022/03/12 04:14:34;;;;;;;;;;;;;;;-0.55;59.14;101417.69;4436559;32;20027;-89
2022/03/12 04:17:00;;;;;;;;;;;;;;;-0.35;59.16;101416.78;4422706;32;28269;-89
2022/03/12 04:19:28;;;;;;;;;;;;;;;-0.40;59.15;101419.97;4423634;32;20029;-90
2022/03/12 04:21:55;;;;;;;;;;;;;;;-0.58;59.15;101417.56;4425387;32;19989;-89
2022/03/12 04:24:23;;;;;;;;;;;;;;;-0.53;59.14;101418.62;4425551;32;20053;-89
2022/03/12 04:26:50;;;;;;;;;;;;;;;-0.50;59.14;101425.53;4425497;32;20049;-88
2022/03/12 04:29:15;;;;;;;;;;;;;;;-0.56;59.15;101423.63;4425192;32;20304;-88
2022/03/12 04:31:40;;;;;;;;;;;;;;;-0.64;59.14;101427.56;4425766;32;19995;-90
2022/03/12 04:34:05;;;;;;;;;;;;;;;-0.65;59.14;101419.03;4425027;32;30712;-88
2022/03/12 04:36:33;;;;;;;;;;;;;;;-0.56;59.14;101421.06;4425468;32;20009;-89
2022/03/12 04:38:58;;;;;;;;;;;;;;;-0.80;59.13;101426.06;4425892;32;20042;-89
2022/03/12 04:41:24;;;;;;;;;;;;;;;-0.93;59.12;101429.81;4425732;32;20295;-89
2022/03/12 04:43:50;;;;;;;;;;;;;;;-1.00;59.12;101427.78;4426072;32;20345;-89
2022/03/12 04:46:16;;;;;;;;;;;;;;;-1.08;59.11;101435.97;4425626;32;19997;-88
2022/03/12 04:48:41;;;;;;;;;;;;;;;-1.04;59.11;101433.59;4425455;32;20001;-88
2022/03/12 04:51:06;;;;;;;;;;;;;;;-1.07;59.11;101438.59;4425536;32;19985;-88
2022/03/12 04:53:32;;;;;;;;;;;;;;;-1.38;59.09;101436.41;4438200;32;20026;-87
2022/03/12 04:55:57;;;;;;;;;;;;;;;-1.35;59.10;101435.69;4425268;32;20048;-87
2022/03/12 04:58:23;;;;;;;;;;;;;;;-1.66;59.08;101448.75;4438126;32;19997;-88
2022/03/12 05:00:48;;;;;;;;;;;;;;;-1.74;59.08;101440.78;4425314;32;20016;-89
2022/03/12 05:03:13;;;;;;;;;;;;;;;-1.91;59.06;101446.78;4425520;32;20009;-89
2022/03/12 05:05:39;;;;;;;;;;;;;;;-1.96;59.06;101450.81;4425549;32;20232;-85
2022/03/12 05:08:05;;;;;;;;;;;;;;;-2.04;59.05;101453.03;4439222;32;20034;-84
2022/03/12 05:10:30;;;;;;;;;;;;;;;-2.08;59.05;101448.59;4439227;32;20335;-85
2022/03/12 05:13:00;;;;;;;;;;;;;;;-1.97;59.06;101451.63;4439245;32;20001;-85
2022/03/12 05:15:34;;;;;;;;;;;;;;;-2.00;59.06;101451.50;4438062;32;19993;-87
2022/03/12 05:17:59;;;;;;;;;;;;;;;-1.97;59.05;101444.84;4424809;32;19981;-87
2022/03/12 05:20:25;;;;;;;;;;;;;;;-2.02;59.06;101445.44;4439178;32;19980;-87
2022/03/12 05:22:50;;;;;;;;;;;;;;;-2.13;59.05;101446.63;4439150;32;19985;-87
2022/03/12 05:25:19;;;;;;;;;;;;;;;-1.96;59.06;101441.50;4437874;32;20336;-86
2022/03/12 05:27:45;;;;;;;;;;;;;;;-1.85;59.07;101442.00;4424930;32;19989;-86
2022/03/12 05:30:10;;;;;;;;;;;;;;;-1.81;59.07;101446.41;4437250;32;20266;-85
2022/03/12 05:32:36;;;;;;;;;;;;;;;-1.85;59.07;101447.09;4437525;32;20035;-88
2022/03/12 05:35:01;;;;;;;;;;;;;;;-1.73;59.08;101452.72;4425545;32;19997;-90
2022/03/12 05:37:26;;;;;;;;;;;;;;;-1.62;59.08;101453.22;4425563;32;19990;-90
2022/03/12 05:39:51;;;;;;;;;;;;;;;-1.48;59.09;101446.16;4425166;32;28469;-89
2022/03/12 05:42:18;;;;;;;;;;;;;;;-1.44;59.09;101446.34;4437730;32;19996;-88
2022/03/12 05:44:44;;;;;;;;;;;;;;;-1.34;59.10;101443.41;4424965;32;20001;-87
2022/03/12 05:47:09;;;;;;;;;;;;;;;-1.24;59.10;101445.53;4424720;32;19977;-87
2022/03/12 05:49:35;;;;;;;;;;;;;;;-1.00;59.12;101440.56;4424896;32;19988;-87
2022/03/12 05:52:00;;;;;;;;;;;;;;;-1.02;59.12;101439.66;4437647;32;19982;-87
2022/03/12 05:54:25;;;;;;;;;;;;;;;-0.84;59.13;101436.09;4424866;32;20263;-87
2022/03/12 05:56:50;;;;;;;;;;;;;;;-0.68;59.13;101429.13;4437731;32;20012;-87
2022/03/12 05:59:16;;;;;;;;;;;;;;;-0.52;59.14;101437.41;4437672;32;19982;-87
2022/03/12 06:01:41;;;;;;;;;;;;;;;-0.33;59.16;101437.31;4436822;32;26107;-86
2022/03/12 06:04:08;;;;;;;;;;;;;;;-0.09;59.17;101430.56;4424777;32;20005;-88
2022/03/12 06:06:35;;;;;;;;;;;;;;;-0.02;59.18;101424.84;4437796;32;19985;-85
2022/03/12 06:09:00;;;;;;;;;;;;;;;0.07;59.18;101428.59;4439041;32;19993;-89
2022/03/12 06:11:27;;;;;;;;;;;;;;;0.29;59.19;101428.56;4420945;32;20036;-88
2022/03/12 06:13:59;;;;;;;;;;;;;;;0.47;59.20;101431.78;4409218;32;20049;-88
2022/03/12 06:16:24;;;;;;;;;;;;;;;0.39;59.20;101440.87;4423884;32;19970;-89
2022/03/12 06:18:51;;;;;;;;;;;;;;;0.68;59.22;101434.22;4422107;32;19991;-90
2022/03/12 06:21:17;;;;;;;;;;;;;;;0.76;59.22;101430.25;4422694;32;20017;-90
2022/03/12 06:23:42;;;;;;;;;;;;;;;0.84;59.23;101435.62;4422715;32;20718;-90
2022/03/12 06:26:14;;;;;;;;;;;;;;;0.91;59.23;101428.19;4422408;32;20024;-90
2022/03/12 06:28:41;;;;;;;;;;;;;;;1.12;59.24;101430.59;4422392;32;19978;-89
2022/03/12 06:31:07;;;;;;;;;;;;;;;1.25;59.25;101426.75;4423072;32;20275;-89
2022/03/12 06:33:33;;;;;;;;;;;;;;;1.39;59.25;101435.75;4423125;32;20347;-91
2022/03/12 06:35:59;;;;;;;;;;;;;;;1.50;59.27;101429.28;4422155;32;20043;-90
2022/03/12 06:38:26;;;;;;;;;;;;;;;1.61;59.27;101429.59;4422453;32;19977;-87
2022/03/12 06:40:56;;;;;;;;;;;;;;;1.67;59.27;101434.09;4422018;32;19994;-88
2022/03/12 06:43:21;;;;;;;;;;;;;;;1.78;59.28;101436.13;4409166;32;20048;-90
2022/03/12 06:45:47;;;;;;;;;;;;;;;1.84;59.29;101438.00;4418065;32;20274;-88
2022/03/12 06:48:12;;;;;;;;;;;;;;;2.08;59.30;101445.56;4408927;32;20059;-88
2022/03/12 06:50:38;;;;;;;;;;;;;;;2.24;59.31;101431.50;4408954;32;26706;-88
2022/03/12 06:53:03;;;;;;;;;;;;;;;2.42;59.32;101448.31;4409560;32;20310;-86
2022/03/12 06:55:28;;;;;;;;;;;;;;;2.29;59.32;101453.03;4422909;32;19992;-88
2022/03/12 06:57:54;;;;;;;;;;;;;;;2.28;59.31;101454.75;4408971;32;20327;-87
2022/03/12 07:00:23;;;;;;;;;;;;;;;2.36;59.32;101452.38;4422308;32;20302;-88
2022/03/12 07:02:48;;;;;;;;;;;;;;;2.57;59.32;101452.97;4422795;32;20392;-90
2022/03/12 07:05:14;;;;;;;;;;;;;;;2.69;59.33;101461.06;4408806;32;19993;-88
2022/03/12 07:07:39;;;;;;;;;;;;;;;2.78;59.34;101448.44;4422103;32;20333;-89
2022/03/12 07:10:05;;;;;;;;;;;;;;;2.69;59.33;101455.91;4409352;32;20020;-90
2022/03/12 07:12:30;;;;;;;;;;;;;;;2.58;59.33;101459.00;4422026;32;20035;-88
2022/03/12 07:14:55;;;;;;;;;;;;;;;2.78;59.33;101469.00;4408737;32;24401;-89
2022/03/12 07:17:21;;;;;;;;;;;;;;;2.99;59.35;101458.41;4409209;32;19981;-89
2022/03/12 07:19:46;;;;;;;;;;;;;;;2.89;59.35;101461.59;4408919;32;19982;-90
2022/03/12 07:22:12;;;;;;;;;;;;;;;2.68;59.33;101461.00;4420093;32;19993;-89
2022/03/12 07:24:37;;;;;;;;;;;;;;;2.69;59.33;101465.31;4411323;32;25426;-90
2022/03/12 07:27:02;;;;;;;;;;;;;;;2.68;59.33;101464.44;4411681;32;20047;-88
2022/03/12 07:29:31;;;;;;;;;;;;;;;2.57;59.32;101473.53;4411643;32;20026;-90
2022/03/12 07:31:56;;;;;;;;;;;;;;;2.45;59.32;101460.37;4412190;32;20053;-89
2022/03/12 07:34:21;;;;;;;;;;;;;;;2.62;59.33;101466.00;4412212;32;19981;-90
2022/03/12 07:36:47;;;;;;;;;;;;;;;2.67;59.33;101462.72;4411452;32;20028;-90
2022/03/12 07:39:12;;;;;;;;;;;;;;;2.75;59.34;101465.47;4412635;32;20017;-92
2022/03/12 07:41:37;;;;;;;;;;;;;;;2.78;59.33;101455.28;4412942;32;20031;-91
2022/03/12 07:44:03;;;;;;;;;;;;;;;3.10;59.36;101458.72;4425525;32;20038;-92
2022/03/12 07:46:28;;;;;;;;;;;;;;;2.98;59.35;101459.25;4425394;32;20016;-92
2022/03/12 07:48:53;;;;;;;;;;;;;;;3.37;59.37;101454.25;4413010;32;19997;-92
2022/03/12 07:51:18;;;;;;;;;;;;;;;3.37;59.37;101449.09;4413199;32;20611;-92
2022/03/12 07:53:44;;;;;;;;;;;;;;;3.36;59.37;101444.78;4412195;32;28160;-92
2022/03/12 07:56:09;;;;;;;;;;;;;;;3.66;59.39;101436.03;4413862;32;20037;-91
2022/03/12 07:58:35;;;;;;;;;;;;;;;3.59;59.38;101436.75;4415212;32;20019;-93
2022/03/12 08:01:02;;;;;;;;;;;;;;;3.49;59.38;101438.22;4415012;32;20005;-92
2022/03/12 08:03:28;;;;;;;;;;;;;;;3.49;59.38;101433.06;4415827;32;20360;-92
2022/03/12 08:05:54;;;;;;;;;;;;;;;3.64;59.39;101440.28;4415520;32;19985;-95
2022/03/12 08:08:19;;;;;;;;;;;;;;;3.85;59.41;101432.19;4415248;32;20286;-91
2022/03/12 08:13:29;;;;;;;;;;;;;;;3.82;59.39;101432.97;4430185;32;20067;-92
2022/03/12 08:15:54;;;;;;;;;;;;;;;3.90;59.40;101438.28;4415133;32;19985;-91
2022/03/12 08:18:20;;;;;;;;;;;;;;;3.93;59.40;101436.66;4415153;32;20279;-90
2022/03/12 08:20:45;;;;;;;;;;;;;;;3.88;59.40;101433.13;4414535;32;19997;-89
2022/03/12 08:23:10;;;;;;;;;;;;;;;4.06;59.42;101436.94;4414830;32;19973;-91
2022/03/12 08:25:36;;;;;;;;;;;;;;;4.25;59.42;101428.72;4427843;32;20016;-90
2022/03/12 08:28:02;;;;;;;;;;;;;;;4.43;59.44;101429.09;4414459;32;19990;-91
2022/03/12 08:30:27;;;;;;;;;;;;;;;4.37;59.44;101428.12;4427190;32;20057;-91
2022/03/12 08:32:53;;;;;;;;;;;;;;;4.49;59.45;101436.06;4414493;32;19974;-91
2022/03/12 08:35:18;;;;;;;;;;;;;;;4.58;59.45;101426.84;4414601;32;20242;-90
2022/03/12 08:37:43;;;;;;;;;;;;;;;4.69;59.45;101429.59;4414436;32;19989;-92
2022/03/12 08:40:10;;;;;;;;;;;;;;;4.71;59.45;101421.88;4413772;32;34165;-90
2022/03/12 08:42:35;;;;;;;;;;;;;;;4.88;59.47;101421.34;4414594;32;20030;-90
2022/03/12 08:45:01;;;;;;;;;;;;;;;4.94;59.47;101418.88;4413657;32;27689;-91
2022/03/12 08:47:26;;;;;;;;;;;;;;;5.09;59.48;101418.28;4414260;32;19997;-91
2022/03/12 08:49:51;;;;;;;;;;;;;;;5.10;59.48;101411.41;4427457;32;20374;-92
2022/03/12 08:52:16;;;;;;;;;;;;;;;5.30;59.50;101415.19;4414509;32;20583;-91
2022/03/12 08:54:42;;;;;;;;;;;;;;;5.55;59.51;101412.16;4413779;32;23273;-91
2022/03/12 08:57:07;;;;;;;;;;;;;;;5.58;59.51;101421.66;4414162;32;20012;-91
2022/03/12 08:59:33;;;;;;;;;;;;;;;5.72;59.51;101414.13;4414572;32;19990;-90
2022/03/12 09:01:58;;;;;;;;;;;;;;;5.86;59.51;101413.44;4414365;32;20030;-90
2022/03/12 09:04:23;;;;;;;;;;;;;;;5.74;59.51;101417.59;4413940;32;20000;-91
2022/03/12 09:06:49;;;;;;;;;;;;;;;5.62;59.50;101415.69;4413288;32;23431;-90
2022/03/12 09:09:15;;;;;;;;;;;;;;;5.55;59.51;101421.59;4427092;32;19997;-91
2022/03/12 09:11:41;;;;;;;;;;;;;;;5.56;59.51;101420.75;4414556;32;19996;-90
2022/03/12 09:14:06;;;;;;;;;;;;;;;5.73;59.51;101411.56;4414155;32;20331;-90
2022/03/12 09:16:32;;;;;;;;;;;;;;;5.82;59.52;101409.09;4414201;32;20005;-91
2022/03/12 09:18:57;;;;;;;;;;;;;;;5.91;59.53;101410.06;4440860;32;20006;-90
2022/03/12 09:21:23;;;;;;;;;;;;;;;6.08;59.54;101412.03;4413945;32;20224;-90
2022/03/12 09:23:49;;;;;;;;;;;;;;;6.21;59.55;101410.50;4414014;32;19989;-91
2022/03/12 09:26:14;;;;;;;;;;;;;;;6.54;59.56;101407.41;4413743;32;20281;-90
2022/03/12 09:28:39;;;;;;;;;;;;;;;6.73;59.57;101406.75;4413812;32;20297;-91
2022/03/12 09:31:06;;;;;;;;;;;;;;;6.53;59.55;101412.56;4413385;32;20761;-89
2022/03/12 09:33:31;;;;;;;;;;;;;;;6.75;59.57;101401.59;4414302;32;19974;-91
2022/03/12 09:35:57;;;;;;;;;;;;;;;6.70;59.56;101409.31;4413739;32;22641;-91
2022/03/12 09:38:23;;;;;;;;;;;;;;;6.86;59.57;101402.59;4414170;32;20330;-90
2022/03/12 09:40:48;;;;;;;;;;;;;;;6.95;59.58;101394.03;4414111;32;20005;-90
2022/03/12 09:43:13;;;;;;;;;;;;;;;7.12;59.59;101386.41;4414010;32;19981;-91
2022/03/12 09:45:38;;;;;;;;;;;;;;;7.28;59.60;101388.25;4413601;32;20595;-91
2022/03/12 09:48:05;;;;;;;;;;;;;;;7.30;59.60;101383.94;4413669;32;19993;-89
2022/03/12 09:50:30;;;;;;;;;;;;;;;7.56;59.62;101392.78;4413630;32;19990;-89
2022/03/12 09:52:56;;;;;;;;;;;;;;;7.60;59.62;101381.59;4413946;32;20290;-90
2022/03/12 09:55:22;;;;;;;;;;;;;;;7.68;59.63;101382.50;4413765;32;19997;-91
2022/03/12 09:57:48;;;;;;;;;;;;;;;7.85;59.63;101386.91;4413739;32;20019;-90
2022/03/12 10:00:13;;;;;;;;;;;;;;;7.84;59.64;101380.88;4426554;32;19973;-91
2022/03/12 10:02:39;;;;;;;;;;;;;;;7.90;59.63;101377.44;4413898;32;20299;-90
2022/03/12 10:05:04;;;;;;;;;;;;;;;8.01;59.65;101379.19;4413615;32;20016;-90
2022/03/12 10:07:29;;;;;;;;;;;;;;;7.80;59.63;101379.09;4413317;32;20291;-91
2022/03/12 10:09:55;;;;;;;;;;;;;;;7.98;59.64;101375.72;4413453;32;20016;-90
2022/03/12 10:12:20;;;;;;;;;;;;;;;8.13;59.65;101369.75;4413438;32;19996;-89
2022/03/12 10:14:48;;;;;;;;;;;;;;;8.23;59.66;101367.19;4413535;32;20248;-91
2022/03/12 10:17:13;;;;;;;;;;;;;;;8.33;59.66;101368.09;4413648;32;20020;-90
2022/03/12 10:19:39;;;;;;;;;;;;;;;8.46;59.67;101363.81;4412523;32;20303;-89
2022/03/12 10:22:04;;;;;;;;;;;;;;;8.57;59.68;101359.53;4426164;32;20000;-90
2022/03/12 10:24:29;;;;;;;;;;;;;;;8.64;59.68;101352.63;4413404;32;20023;-90
2022/03/12 10:26:55;;;;;;;;;;;;;;;8.60;59.68;101357.81;4413331;32;20348;-90
2022/03/12 10:29:20;;;;;;;;;;;;;;;8.64;59.68;101368.19;4413225;32;19973;-90
2022/03/12 10:31:45;;;;;;;;;;;;;;;8.57;59.67;101354.34;4426248;32;19981;-91
2022/03/12 10:34:14;;;;;;;;;;;;;;;8.45;59.67;101357.75;4413434;32;20023;-90
2022/03/12 10:36:39;;;;;;;;;;;;;;;8.35;59.66;101358.63;4426193;32;20315;-90
2022/03/12 10:39:05;;;;;;;;;;;;;;;8.59;59.68;101363.00;4413284;32;19981;-90
2022/03/12 10:41:30;;;;;;;;;;;;;;;8.65;59.67;101357.81;4413277;32;20239;-89
2022/03/12 10:43:56;;;;;;;;;;;;;;;8.93;59.69;101351.78;4425926;32;20046;-89
2022/03/12 10:46:25;;;;;;;;;;;;;;;9.14;59.71;101353.50;4413023;32;20293;-90
2022/03/12 10:48:57;;;;;;;;;;;;;;;9.26;59.72;101342.25;4425776;32;19977;-91
2022/03/12 10:51:25;;;;;;;;;;;;;;;9.35;59.72;101339.63;4413356;32;19982;-90
2022/03/12 10:53:51;;;;;;;;;;;;;;;9.53;59.73;101346.53;4413344;32;19989;-90
2022/03/12 10:56:16;;;;;;;;;;;;;;;9.58;59.74;101338.72;4425811;32;19985;-89
2022/03/12 10:58:41;;;;;;;;;;;;;;;9.72;59.74;101344.75;4412972;32;20023;-90
2022/03/12 11:01:06;;;;;;;;;;;;;;;9.79;59.75;101330.84;4413120;32;19992;-90
2022/03/12 11:03:35;;;;;;;;;;;;;;;9.74;59.74;101336.09;4425929;32;19994;-90
2022/03/12 11:06:01;;;;;;;;;;;;;;;9.62;59.74;101336.09;4425874;32;19993;-89
2022/03/12 11:08:27;;;;;;;;;;;;;;;9.68;59.74;101332.59;4412832;32;20016;-90
2022/03/12 11:10:52;;;;;;;;;;;;;;;9.56;59.73;101328.31;4412714;32;20334;-90
2022/03/12 11:16:17;;;;;;;;;;;;;;;9.45;59.73;101320.53;4427138;32;19990;-89
2022/03/12 11:18:54;;;;;;;;;;;;;;;9.64;59.74;101313.56;4439727;32;19985;-90
2022/03/12 11:21:37;;;;;;;;;;;;;;;9.72;59.75;101314.41;4425743;32;20310;-89
2022/03/12 11:24:05;;;;;;;;;;;;;;;9.72;59.75;101311.81;4413608;32;20338;-91
2022/03/12 11:26:30;;;;;;;;;;;;;;;9.59;59.73;101311.84;4412852;32;20012;-90
2022/03/12 11:28:58;;;;;;;;;;;;;;;9.52;59.73;101298.88;4412336;32;19996;-90
2022/03/12 11:31:40;;;;;;;;;;;;;;;9.68;59.74;101302.28;4413198;32;19977;-90
2022/03/12 11:34:12;;;;;;;;;;;;;;;9.89;59.75;101301.31;4412707;32;20033;-91
2022/03/12 11:36:38;;;;;;;;;;;;;;;9.84;59.74;101297.87;4425345;32;20627;-89
2022/03/12 11:39:04;;;;;;;;;;;;;;;9.93;59.75;101295.22;4412735;32;20045;-90
2022/03/12 11:41:29;;;;;;;;;;;;;;;9.97;59.75;101294.37;4412748;32;20317;-91
2022/03/12 11:43:55;;;;;;;;;;;;;;;9.95;59.75;101293.53;4412363;32;20024;-90
2022/03/12 11:46:20;;;;;;;;;;;;;;;10.05;59.76;101282.19;4424936;32;20031;-89
2022/03/12 11:48:45;;;;;;;;;;;;;;;10.13;59.77;101282.13;4412309;32;19978;-91
2022/03/12 11:51:17;;;;;;;;;;;;;;;9.94;59.76;101283.12;4412241;32;19973;-90
2022/03/12 11:53:43;;;;;;;;;;;;;;;9.91;59.75;101273.56;4412369;32;20013;-91
2022/03/12 11:56:08;;;;;;;;;;;;;;;10.03;59.76;101267.47;4412537;32;20181;-90
2022/03/12 11:58:36;;;;;;;;;;;;;;;10.29;59.78;101267.34;4411782;32;25970;-90
2022/03/12 12:01:01;;;;;;;;;;;;;;;10.37;59.78;101249.91;4412592;32;19992;-90
2022/03/12 12:03:26;;;;;;;;;;;;;;;10.39;59.78;101250.75;4411982;32;19985;-91
2022/03/12 12:05:54;;;;;;;;;;;;;;;10.42;59.78;101251.63;4412218;32;19990;-89
2022/03/12 12:08:19;;;;;;;;;;;;;;;10.50;59.78;101245.50;4425348;32;20895;-90
2022/03/12 12:10:45;;;;;;;;;;;;;;;10.39;59.79;101242.94;4412312;32;20043;-90
2022/03/12 12:13:12;;;;;;;;;;;;;;;10.45;59.79;101246.41;4412052;32;20251;-91
2022/03/12 12:15:39;;;;;;;;;;;;;;;10.38;59.79;101233.41;4412370;32;20005;-90
2022/03/12 12:18:04;;;;;;;;;;;;;;;10.37;59.78;101229.09;4412323;32;19977;-90
2022/03/12 12:20:30;;;;;;;;;;;;;;;10.11;59.77;101237.91;4412101;32;20021;-90
2022/03/12 12:22:56;;;;;;;;;;;;;;;10.20;59.76;101231.81;4412142;32;20041;-90
2022/03/12 12:25:21;;;;;;;;;;;;;;;10.35;59.78;101236.03;4412174;32;20012;-89
2022/03/12 12:27:47;;;;;;;;;;;;;;;10.34;59.78;101229.13;4411888;32;20358;-89
2022/03/12 12:30:15;;;;;;;;;;;;;;;10.20;59.77;101234.41;4438670;32;19981;-90
2022/03/12 12:32:47;;;;;;;;;;;;;;;10.00;59.76;101231.91;4425208;32;19977;-90
2022/03/12 12:35:16;;;;;;;;;;;;;;;9.75;59.74;101226.00;4412023;32;19997;-91
2022/03/12 12:37:52;;;;;;;;;;;;;;;9.58;59.74;101229.53;4411811;32;19982;-90
2022/03/12 12:40:19;;;;;;;;;;;;;;;9.72;59.75;101223.41;4411842;32;19978;-91